x

Pt Arena - 19nm North Of Point Arena, Ca (46014) Wave Buoy

1:50am - Sat 29th Nov 2014 All times are PST. -8 hours from GMT.

  • Sig Wave height 9.2ft
  • Peak Period 11s
  • Average Period 8s
  • Wind
    4mph, 7mph gusts
  • Sea Temp 60°f
  • Air Temp 60°f
  • Sea Pressure 1009.3mb
  • Pt Arena - 19nm North Of Point Arena, Ca
  • Pt Arena - 19nm North Of Point Arena, Ca

More Historic Weather Station data

Upgrade to MSW Pro to gain access to the past 30 days of data for over 8000 Wavebouys and Weather Stations around the globe.

Join Pro

Comparision Forecast

View Surf forecast
   
Sat 11/29 1:50am 9ft 11s 8s 4 7 mph 1009.3mb 60f 60f
12:50am 9ft 12s 8s 4 7 mph 1009.6mb 60f 60f
Fri 11/28 11:50pm 9ft 11s 8s 7
mph
1009.8mb 60f 60f
10:50pm  -   -   -  7 9 mph 1009.9mb 60f 60f
9:50pm  -   -   -  9
mph
- - 60f
8:50pm 8ft 10s 7s 11 16 mph 1009.3mb 60f 59f
7:50pm  -   -   -  22 27 mph 1009mb 60f 58f
6:50pm 9ft 12s 7s 22 29 mph 1009.1mb 60f 58f
5:50pm 9ft 13s 7s 27 34 mph 1009.2mb 60f 58f
4:50pm 9.5ft 13s 7s 31 38 mph 1009mb 60f 58f
3:50pm 9ft 13s 6s 27 34 mph 1009.6mb 60f 58f
2:50pm 10ft 13s 7s 27 31 mph 1010.2mb 60f 58f
1:50pm  -   -   -  27 34 mph 1010.9mb 60f 58f
11:50am  -   -   -  25 31 mph 1012.5mb 60f 58f
10:50am  -   -   -  27 31 mph 1013.6mb 60f 58f
9:50am  -   -   -  25
mph
- - -
8:50am 9ft 13s 7s 25 29 mph 1013.9mb 60f 59f
7:50am  -   -   -  25
mph
1013.8mb 60f 60f
6:50am 10ft 14s 8s 22 27 mph 1014mb 60f 60f
4:50am  -   -   -  20
mph
- - 60f
3:50am  -   -   -  20 22 mph 1014.5mb 60f 60f
2:50am  -   -   -  16 20 mph 1015mb 60f 59f
1:50am  -   -   -  16 18 mph 1015.5mb 59f 60f
12:50am 9.5ft 14s 9s 16 20 mph 1016mb 59f 60f
Thu 11/27 10:50pm  -   -   -  13 18 mph 1017.3mb 59f 59f
9:50pm 8ft 15s 9s 13 18 mph 1017.5mb 59f 59f
8:50pm 7.5ft 15s 9s 16 18 mph 1017.8mb 59f 59f
7:50pm 8ft 15s 10s 11 16 mph 1018.1mb 60f 60f
6:50pm 8ft 15s 10s 9 11 mph 1018.2mb 60f 60f
5:50pm 7ft 15s 10s 11 13 mph 1018mb 60f 60f
4:50pm  -   -   -  13 16 mph 1017.9mb 59f 59f
3:50pm 5ft 15s 8s 13 16 mph 1017.9mb 60f 60f
2:50pm  -   -   -  11 13 mph 1018.1mb 60f 60f
1:50pm 4.5ft 16s 8s 11 13 mph 1018.5mb 60f 60f
12:50pm 4ft 12s 7s 11
mph
1019.4mb 59f 60f
11:50am 4ft 16s 7s 11 13 mph 1020.5mb 59f 60f
10:50am 3.5ft 13s 6s 11 13 mph 1021.1mb 59f 59f
9:50am  -   -   -   -  mph 1021.4mb 59f 59f
8:50am  -   -   -  13
mph
1021mb 59f 59f
7:50am  -   -   -  11
mph
- - 58f
6:50am 3.5ft 13s 7s 11 13 mph 1021mb 59f 59f
5:50am  -   -   -  9
mph
- - -
4:50am 3.5ft 11s 8s 7 9 mph 1021.3mb 59f 60f
3:50am 3.5ft 12s 7s 9 11 mph 1021.5mb 59f 60f
2:50am 3.5ft 11s 7s 7 9 mph 1021.8mb 59f 60f
1:50am  -   -   -  9 11 mph 1021.6mb 59f 60f
12:50am 4ft 11s 7s 11 13 mph 1021.8mb 60f 60f
Wed 11/26 11:50pm 4.5ft 12s 7s 9 11 mph 1022.1mb 60f 60f
10:50pm 4.5ft 11s 7s 7 9 mph 1022.6mb 60f 61f
9:50pm 4ft 11s 7s 13 16 mph 1022.3mb 60f 61f
8:50pm 5ft 12s 8s 13 16 mph 1022.5mb 60f 61f
7:50pm 4.5ft 12s 7s 11 13 mph 1022.2mb 60f 61f
6:50pm 4ft 12s 7s 13 16 mph 1022.1mb 60f 61f
5:50pm 4ft 12s 7s 13 16 mph 1021.8mb 60f 62f
4:50pm 4.5ft 12s 7s 13
mph
1021.9mb 60f 62f
3:50pm 4.5ft 11s 6s 13
mph
1022.1mb 60f 61f
2:50pm 4.5ft 12s 6s 11 13 mph 1022.1mb 60f 62f
1:50pm  -   -   -  11 13 mph 1022.6mb 60f 62f
12:50pm 5ft 11s 8s 9
mph
1023mb 60f 60f
11:50am  -   -   -  9
mph
1023.6mb 60f 60f
10:50am 5ft 11s 8s 7 9 mph 1024.6mb 60f 59f
9:50am 4.5ft 11s 8s 9 11 mph 1024.7mb 60f 59f
8:50am 5ft 12s 8s 9 11 mph 1024.7mb 60f 58f
7:50am 4.5ft 13s 8s 11 13 mph 1024.5mb 60f 57f
6:50am 5.5ft 12s 9s 11 13 mph 1024.8mb 59f 58f
5:50am 5ft 13s 8s 7 9 mph 1025.2mb 59f 57f
4:50am 6ft 12s 9s 11 16 mph 1024.9mb 59f 57f
3:50am 5.5ft 12s 9s 7 9 mph 1025.9mb 59f 57f
2:50am 6ft 14s 9s 7 9 mph 1026.1mb 60f 59f
1:50am 7ft 13s 10s 7 9 mph 1026.3mb 60f 58f
12:50am 6.5ft 12s 9s 7 9 mph 1026.2mb 60f 58f
Tue 11/25 11:50pm 6ft 11s 9s 9 11 mph 1026.3mb 60f 57f
10:50pm 7ft 11s 9s 2 4 mph 1026.9mb 59f 58f
9:50pm  -   -   -  2 7 mph 1027.2mb 60f 58f
8:50pm 8.5ft 13s 10s 2 4 mph 1027.8mb 60f 58f
7:50pm 8ft 13s 10s 7
mph
1028.2mb 60f 58f
6:50pm 8ft 13s 11s 4 7 mph 1028.3mb 60f 58f
5:50pm 7ft 12s 10s 2 4 mph 1028.4mb 60f 58f
4:50pm 7ft 13s 10s  -  mph 1028.3mb 60f 59f
3:50pm 7ft 11s 10s 2 4 mph 1028.5mb 61f 59f
2:50pm 6.5ft 14s 10s  -  2 mph 1028.8mb 61f 59f
1:50pm 7.5ft 13s 10s  -  2 mph 1029.4mb 61f 59f
12:50pm 7ft 12s 10s  -  2 mph 1029.7mb 60f 58f
11:50am 6.5ft 14s 9s  -  2 mph 1030.4mb 60f 58f
10:50am 7ft 12s 9s  -  2 mph 1031.3mb 60f 57f